Terminal Aerodrome Forecast
Issued by NWS

Home | Current Version | Previous Version | Text Only | Print | Product List | Glossary On
Versions: 1 2 3 4 5 6 7 8 9 10 11 12 13
000
FTAK31 PAJN 062300
TAFAKT
TAF
PAKT 062320Z 0700/0724 14005KT P6SM VCSH BKN025 OVC040
     FM070900 17003KT P6SM BCFG SCT005 OVC050
     FM072100 15006KT P6SM VCSH BKN025 OVC050
      AMD LTD TO CLD VIS AND WIND 0706/0715=

USA.gov is the U.S. government's official web portal to all federal, state and local government web resources and services.